Time;durP1;ratioP1;P1;durP2;ratioP2;P2;SDS_P1;SDS_P2;PMS_P1;PMS_P2;Temp;Humidity;BMP_temperature;BMP_pressure;BME280_temperature;BME280_humidity;BME280_pressure;Samples;Min_cycle;Max_cycle;Signal;HPM_P1;HPM_P2
2023/05/25 00:01:47;;;;;;;;;;;;;;;27.47;32.28;96543.91;5050780;28;19959;-58
2023/05/25 00:04:18;;;;;;;;;;;;;;;28.33;31.58;96538.75;5046981;28;19956;-59
2023/05/25 00:06:47;;;;;;;;;;;;;;;28.21;31.76;96548.09;5047239;28;20061;-55
2023/05/25 00:09:15;;;;;;;;;;;;;;;27.38;32.09;96550.81;5051404;28;19956;-55
2023/05/25 00:11:44;;;;;;;;;;;;;;;27.47;32.16;96552.03;5045396;28;20494;-58
2023/05/25 00:14:12;;;;;;;;;;;;;;;27.12;32.63;96555.03;5042505;28;19967;-57
2023/05/25 00:16:40;;;;;;;;;;;;;;;28.01;31.53;96552.22;5039454;28;19956;-59
2023/05/25 00:19:09;;;;;;;;;;;;;;;27.56;32.21;96555.13;5047938;28;19971;-58
2023/05/25 00:21:37;;;;;;;;;;;;;;;27.52;32.24;96557.50;5052809;28;19978;-58
2023/05/25 00:24:07;;;;;;;;;;;;;;;27.23;32.90;96556.03;5047993;28;20400;-58
2023/05/25 00:26:35;;;;;;;;;;;;;;;27.59;32.65;96558.16;5048324;28;19956;-61
2023/05/25 00:29:04;;;;;;;;;;;;;;;26.73;33.14;96560.31;5049552;28;19971;-61
2023/05/25 00:31:34;;;;;;;;;;;;;;;26.27;33.98;96563.00;5051233;28;19974;-58
2023/05/25 00:34:02;;;;;;;;;;;;;;;27.38;32.75;96562.47;5050320;28;19960;-58
2023/05/25 00:36:30;;;;;;;;;;;;;;;28.00;31.96;96553.28;5049401;28;19967;-56
2023/05/25 00:38:58;;;;;;;;;;;;;;;26.59;33.22;96551.69;5050743;28;19968;-57
2023/05/25 00:41:27;;;;;;;;;;;;;;;26.74;33.56;96554.69;5046516;28;19968;-58
2023/05/25 00:43:56;;;;;;;;;;;;;;;26.45;33.76;96563.88;5054186;28;19964;-56
2023/05/25 00:46:24;;;;;;;;;;;;;;;26.82;33.46;96558.06;5049846;28;19971;-58
2023/05/25 00:48:52;;;;;;;;;;;;;;;26.40;34.11;96563.78;5053924;28;19968;-57
2023/05/25 00:51:20;;;;;;;;;;;;;;;26.94;33.71;96559.63;5050284;28;19975;-58
2023/05/25 00:53:48;;;;;;;;;;;;;;;27.03;33.09;96562.72;5044018;28;20019;-59
2023/05/25 00:56:19;;;;;;;;;;;;;;;26.44;34.38;96570.34;5048977;28;19955;-58
2023/05/25 00:58:48;;;;;;;;;;;;;;;26.42;34.21;96559.75;5048058;28;19967;-60
2023/05/25 01:01:16;;;;;;;;;;;;;;;26.57;34.67;96558.44;5046756;28;19968;-57
2023/05/25 01:03:46;;;;;;;;;;;;;;;26.45;34.54;96556.56;5046327;28;19987;-58
2023/05/25 01:06:15;;;;;;;;;;;;;;;26.33;34.93;96555.00;5046356;28;19967;-59
2023/05/25 01:08:45;;;;;;;;;;;;;;;26.91;34.15;96552.00;5048182;28;19956;-57
2023/05/25 01:11:13;;;;;;;;;;;;;;;26.08;35.46;96539.91;5046451;28;19964;-58
2023/05/25 01:13:41;;;;;;;;;;;;;;;26.52;35.03;96532.09;5041409;28;19967;-57
2023/05/25 01:16:11;;;;;;;;;;;;;;;26.45;34.94;96536.81;5052178;28;20399;-62
2023/05/25 01:18:40;;;;;;;;;;;;;;;26.82;34.49;96529.09;5047512;28;19952;-60
2023/05/25 01:21:12;;;;;;;;;;;;;;;25.45;36.25;96532.66;5045606;28;20455;-57
2023/05/25 01:23:42;;;;;;;;;;;;;;;26.13;35.68;96529.22;5045318;28;20414;-56
2023/05/25 01:26:13;;;;;;;;;;;;;;;26.71;35.19;96536.22;5045893;28;19968;-59
2023/05/25 01:28:45;;;;;;;;;;;;;;;26.92;34.75;96537.38;5039664;28;19954;-61
2023/05/25 01:31:13;;;;;;;;;;;;;;;26.34;35.64;96543.13;5044983;28;19971;-62
2023/05/25 01:33:41;;;;;;;;;;;;;;;27.12;34.95;96547.75;5046137;28;19925;-59
2023/05/25 01:36:11;;;;;;;;;;;;;;;26.52;35.52;96546.44;5051254;28;19959;-61
2023/05/25 01:38:39;;;;;;;;;;;;;;;26.47;35.71;96546.38;5056512;28;19975;-58
2023/05/25 01:41:07;;;;;;;;;;;;;;;27.18;35.01;96551.31;5048958;28;20047;-58
2023/05/25 01:43:35;;;;;;;;;;;;;;;27.24;35.08;96552.25;5053219;28;19978;-56
2023/05/25 01:52:13;;;;;;;;;;;;;;;27.60;34.32;96559.81;5002359;28;19961;-61
2023/05/25 01:54:43;;;;;;;;;;;;;;;27.61;34.57;96560.63;5011375;28;20411;-63
2023/05/25 01:57:12;;;;;;;;;;;;;;;27.08;35.41;96565.53;4998179;28;19965;-63
2023/05/25 01:59:40;;;;;;;;;;;;;;;27.55;35.06;96558.91;4998310;28;19968;-62
2023/05/25 02:02:08;;;;;;;;;;;;;;;27.68;34.64;96556.66;4997094;28;19960;-63
2023/05/25 02:04:36;;;;;;;;;;;;;;;27.77;34.74;96565.22;4991989;28;19983;-63
2023/05/25 02:07:05;;;;;;;;;;;;;;;27.34;35.71;96561.31;4993850;28;20416;-64
2023/05/25 02:09:34;;;;;;;;;;;;;;;27.23;35.79;96561.44;4994428;28;19975;-63
2023/05/25 02:12:02;;;;;;;;;;;;;;;27.71;35.34;96555.34;4987453;28;19960;-62
2023/05/25 02:14:30;;;;;;;;;;;;;;;27.63;35.55;96551.19;5000238;28;19961;-63
2023/05/25 02:17:00;;;;;;;;;;;;;;;27.73;35.58;96547.75;4996936;28;20680;-63
2023/05/25 02:19:29;;;;;;;;;;;;;;;27.81;35.44;96551.97;4992247;28;19957;-60
2023/05/25 02:21:57;;;;;;;;;;;;;;;28.39;34.95;96554.03;4998933;28;19968;-63
2023/05/25 02:24:25;;;;;;;;;;;;;;;27.45;36.27;96552.28;4995723;28;20284;-63
2023/05/25 02:26:54;;;;;;;;;;;;;;;27.76;36.21;96543.75;5001571;28;19969;-63
2023/05/25 02:29:22;;;;;;;;;;;;;;;28.08;36.21;96539.28;4999537;28;19969;-63
2023/05/25 02:31:50;;;;;;;;;;;;;;;27.88;36.26;96539.88;4996280;28;19961;-62
2023/05/25 02:34:18;;;;;;;;;;;;;;;28.25;36.18;96532.94;4997788;28;19975;-62
2023/05/25 02:36:46;;;;;;;;;;;;;;;27.34;38.12;96536.13;4993658;28;20431;-63
2023/05/25 02:39:14;;;;;;;;;;;;;;;27.69;37.63;96531.19;4992351;28;19964;-64
2023/05/25 02:41:43;;;;;;;;;;;;;;;27.86;37.91;96528.44;4997611;28;19961;-63
2023/05/25 02:44:12;;;;;;;;;;;;;;;27.29;39.00;96536.06;4997595;28;19960;-63
2023/05/25 02:46:40;;;;;;;;;;;;;;;27.67;38.56;96535.25;4994029;28;19968;-61
2023/05/25 02:49:08;;;;;;;;;;;;;;;27.40;39.49;96535.16;5000661;28;19968;-63
2023/05/25 02:51:36;;;;;;;;;;;;;;;28.03;38.54;96535.69;4995364;28;19961;-64
2023/05/25 02:54:05;;;;;;;;;;;;;;;27.88;38.67;96547.19;4996426;28;19957;-63
2023/05/25 02:56:33;;;;;;;;;;;;;;;27.78;39.26;96541.63;4994909;28;19963;-61
2023/05/25 02:59:01;;;;;;;;;;;;;;;28.24;38.70;96542.16;4995185;28;20401;-64
2023/05/25 03:01:31;;;;;;;;;;;;;;;27.90;39.83;96536.88;4996709;28;19965;-63
2023/05/25 03:03:59;;;;;;;;;;;;;;;27.25;41.27;96541.13;4994596;28;20453;-64
2023/05/25 03:06:27;;;;;;;;;;;;;;;27.99;40.25;96543.50;4994534;28;19964;-63
2023/05/25 03:08:55;;;;;;;;;;;;;;;28.13;40.40;96539.34;4995675;28;19929;-63
2023/05/25 03:11:23;;;;;;;;;;;;;;;28.29;40.32;96544.94;4996902;28;19957;-63
2023/05/25 03:13:51;;;;;;;;;;;;;;;28.09;40.16;96543.63;4990801;28;19956;-61
2023/05/25 03:16:21;;;;;;;;;;;;;;;28.24;40.57;96550.28;4997154;28;19953;-62
2023/05/25 03:18:51;;;;;;;;;;;;;;;27.63;42.17;96550.34;4997203;28;20421;-62
2023/05/25 03:21:21;;;;;;;;;;;;;;;28.81;39.79;96552.50;5001224;28;20432;-63
2023/05/25 03:23:49;;;;;;;;;;;;;;;28.24;41.66;96548.41;4996596;28;20451;-63
2023/05/25 03:26:17;;;;;;;;;;;;;;;28.12;40.90;96543.13;4994058;28;19965;-60
2023/05/25 03:28:45;;;;;;;;;;;;;;;27.84;42.30;96554.16;4990661;28;19972;-63
2023/05/25 03:31:13;;;;;;;;;;;;;;;27.63;43.55;96550.34;4991229;28;19953;-63
2023/05/25 03:33:41;;;;;;;;;;;;;;;28.18;42.08;96541.28;4991103;28;19952;-61
2023/05/25 03:36:12;;;;;;;;;;;;;;;27.82;43.13;96545.47;4993040;28;19961;-62
2023/05/25 03:38:40;;;;;;;;;;;;;;;27.80;43.84;96536.75;4990930;28;20605;-63
2023/05/25 03:41:08;;;;;;;;;;;;;;;27.11;45.08;96537.13;4990233;28;19957;-64
2023/05/25 03:43:36;;;;;;;;;;;;;;;28.08;43.58;96536.59;4989468;28;19995;-63
2023/05/25 03:46:04;;;;;;;;;;;;;;;26.41;47.95;96543.78;4991032;28;19971;-63
2023/05/25 03:48:32;;;;;;;;;;;;;;;26.66;47.47;96544.25;4992977;28;19960;-63
2023/05/25 03:51:00;;;;;;;;;;;;;;;26.44;47.90;96554.13;4999580;28;19971;-63
2023/05/25 03:53:30;;;;;;;;;;;;;;;26.49;48.97;96554.22;5002500;28;20427;-63
2023/05/25 03:55:58;;;;;;;;;;;;;;;27.49;46.04;96547.16;4999413;28;19964;-63
2023/05/25 03:58:26;;;;;;;;;;;;;;;27.69;45.05;96552.88;4995875;28;20305;-63
2023/05/25 04:00:55;;;;;;;;;;;;;;;27.37;45.87;96551.91;4994690;28;19961;-64
2023/05/25 04:03:23;;;;;;;;;;;;;;;27.17;45.17;96557.81;5001044;28;19972;-64
2023/05/25 04:05:51;;;;;;;;;;;;;;;26.82;45.98;96547.22;5000991;28;19964;-63
2023/05/25 04:08:19;;;;;;;;;;;;;;;27.78;44.28;96555.19;4999494;28;19961;-63
2023/05/25 04:10:48;;;;;;;;;;;;;;;27.88;43.11;96553.41;4996587;28;19965;-64
2023/05/25 04:13:16;;;;;;;;;;;;;;;28.41;42.01;96558.38;4997388;28;19972;-63
2023/05/25 04:15:44;;;;;;;;;;;;;;;27.67;42.61;96557.72;4999225;28;19961;-64
2023/05/25 04:18:13;;;;;;;;;;;;;;;28.31;41.90;96549.00;4999853;28;19963;-64
2023/05/25 04:20:41;;;;;;;;;;;;;;;27.47;43.36;96562.88;5000187;28;20352;-64
2023/05/25 04:23:10;;;;;;;;;;;;;;;26.42;44.85;96569.75;4998383;28;19968;-63
2023/05/25 04:25:38;;;;;;;;;;;;;;;27.87;42.77;96567.22;4995865;28;19960;-63
2023/05/25 04:28:08;;;;;;;;;;;;;;;26.79;43.56;96561.25;4994047;28;19965;-63
2023/05/25 04:30:36;;;;;;;;;;;;;;;27.38;43.31;96567.88;5000000;28;20177;-64
2023/05/25 04:33:05;;;;;;;;;;;;;;;28.22;40.72;96566.84;4991200;28;19956;-63
2023/05/25 04:35:33;;;;;;;;;;;;;;;28.36;39.99;96567.25;4999509;28;20552;-63
2023/05/25 04:38:01;;;;;;;;;;;;;;;28.86;39.50;96561.50;4994163;28;19964;-64
2023/05/25 04:40:31;;;;;;;;;;;;;;;27.63;41.05;96570.16;5004497;28;20063;-64
2023/05/25 04:42:59;;;;;;;;;;;;;;;28.28;40.45;96568.50;4997905;28;19953;-63
2023/05/25 04:45:30;;;;;;;;;;;;;;;28.09;40.32;96570.75;4994639;28;19956;-64
2023/05/25 04:48:00;;;;;;;;;;;;;;;27.41;41.70;96575.50;4996700;28;19961;-63
2023/05/25 04:50:28;;;;;;;;;;;;;;;27.98;40.76;96576.28;4998412;28;20428;-64
2023/05/25 04:52:56;;;;;;;;;;;;;;;28.96;38.38;96576.25;4994986;28;19960;-63
2023/05/25 04:55:24;;;;;;;;;;;;;;;28.52;38.85;96574.47;4998824;28;19975;-64
2023/05/25 04:57:53;;;;;;;;;;;;;;;28.87;38.37;96575.88;4996519;28;19972;-64
2023/05/25 05:00:21;;;;;;;;;;;;;;;27.85;39.39;96581.03;4999095;28;19964;-63
2023/05/25 05:02:51;;;;;;;;;;;;;;;27.61;39.84;96585.81;4993985;28;19968;-63
2023/05/25 05:05:19;;;;;;;;;;;;;;;26.91;40.79;96580.91;4995990;28;19956;-62
2023/05/25 05:07:47;;;;;;;;;;;;;;;27.67;39.67;96589.44;4996309;28;19976;-61
2023/05/25 05:10:16;;;;;;;;;;;;;;;27.35;40.27;96589.22;5001429;28;19964;-64
2023/05/25 05:12:44;;;;;;;;;;;;;;;26.86;40.48;96578.94;4988924;28;19964;-63
2023/05/25 05:15:12;;;;;;;;;;;;;;;27.67;39.85;96579.41;4994057;28;19980;-64
2023/05/25 05:17:40;;;;;;;;;;;;;;;26.44;41.47;96589.28;4974211;28;19922;-63
2023/05/25 05:20:10;;;;;;;;;;;;;;;26.92;40.67;96588.81;4991946;28;19956;-63
2023/05/25 05:22:38;;;;;;;;;;;;;;;26.58;41.05;96596.06;4990214;28;19952;-62
2023/05/25 05:25:07;;;;;;;;;;;;;;;27.31;39.48;96602.44;4996300;28;19961;-64
2023/05/25 05:27:35;;;;;;;;;;;;;;;27.05;39.82;96611.19;4995727;28;20409;-63
2023/05/25 05:30:03;;;;;;;;;;;;;;;26.40;41.21;96607.06;4993399;28;19976;-62
2023/05/25 05:32:31;;;;;;;;;;;;;;;27.08;39.91;96608.00;5000044;28;19961;-64
2023/05/25 05:34:59;;;;;;;;;;;;;;;27.75;38.75;96613.38;4994384;28;19969;-63
2023/05/25 05:37:29;;;;;;;;;;;;;;;27.42;39.39;96611.53;4998951;28;19965;-63
2023/05/25 05:39:57;;;;;;;;;;;;;;;27.90;38.30;96613.59;4995907;28;19995;-63
2023/05/25 05:42:25;;;;;;;;;;;;;;;28.36;37.21;96610.66;5000511;28;19964;-63
2023/05/25 05:44:53;;;;;;;;;;;;;;;28.28;37.79;96611.09;4997273;28;19965;-61
2023/05/25 05:47:21;;;;;;;;;;;;;;;27.75;38.24;96618.81;5000515;28;19953;-64
2023/05/25 05:49:49;;;;;;;;;;;;;;;28.48;37.33;96616.78;4998577;28;19965;-63
2023/05/25 05:52:17;;;;;;;;;;;;;;;28.47;37.60;96609.72;4999725;28;20348;-62
2023/05/25 05:54:47;;;;;;;;;;;;;;;27.72;38.10;96618.47;4999504;28;19980;-64
2023/05/25 05:57:15;;;;;;;;;;;;;;;28.22;37.43;96621.06;5001919;28;19961;-63
2023/05/25 05:59:43;;;;;;;;;;;;;;;26.95;39.18;96622.69;5001183;28;19953;-64
2023/05/25 06:02:11;;;;;;;;;;;;;;;27.42;38.29;96622.38;4999544;28;20003;-63
2023/05/25 06:04:40;;;;;;;;;;;;;;;27.66;38.55;96620.28;4998467;28;19969;-61
2023/05/25 06:07:08;;;;;;;;;;;;;;;28.59;37.19;96615.78;4996825;28;21004;-63
2023/05/25 06:09:36;;;;;;;;;;;;;;;26.62;40.10;96620.75;4993191;28;19953;-64
2023/05/25 06:12:06;;;;;;;;;;;;;;;26.98;39.20;96627.63;5000435;28;20185;-63
2023/05/25 06:14:34;;;;;;;;;;;;;;;27.23;38.72;96623.72;4999032;28;22219;-63
2023/05/25 06:17:02;;;;;;;;;;;;;;;27.61;38.42;96631.06;4998371;28;19964;-63
2023/05/25 06:19:30;;;;;;;;;;;;;;;27.98;37.71;96616.94;5004758;28;20353;-64
2023/05/25 06:21:58;;;;;;;;;;;;;;;26.97;39.56;96634.88;5004116;28;20031;-61
2023/05/25 06:24:26;;;;;;;;;;;;;;;27.65;38.43;96638.44;5003544;28;19960;-63
2023/05/25 06:26:54;;;;;;;;;;;;;;;28.39;37.71;96637.31;4993933;28;19969;-64
2023/05/25 06:29:24;;;;;;;;;;;;;;;29.02;36.54;96635.00;4997342;28;19963;-63
2023/05/25 06:31:52;;;;;;;;;;;;;;;28.69;36.86;96633.28;5001269;28;19965;-62
2023/05/25 06:34:20;;;;;;;;;;;;;;;27.98;37.78;96644.06;4993377;28;19980;-62
2023/05/25 06:36:48;;;;;;;;;;;;;;;27.66;38.19;96644.69;5002346;28;20266;-62
2023/05/25 06:39:16;;;;;;;;;;;;;;;27.90;38.01;96650.75;5003783;28;19967;-64
2023/05/25 06:41:44;;;;;;;;;;;;;;;27.93;37.98;96647.53;5005635;28;19929;-63
2023/05/25 06:44:13;;;;;;;;;;;;;;;28.83;37.10;96648.06;5001222;28;19944;-64
2023/05/25 06:46:43;;;;;;;;;;;;;;;27.17;39.24;96658.00;5001620;28;19922;-64
2023/05/25 06:49:24;;;;;;;;;;;;;;;27.51;38.76;96652.59;5003943;28;20439;-63
2023/05/25 06:51:52;;;;;;;;;;;;;;;27.89;38.90;96649.91;4997854;28;19964;-64
2023/05/25 06:54:20;;;;;;;;;;;;;;;27.78;39.39;96658.19;4997435;28;19969;-64
2023/05/25 06:56:48;;;;;;;;;;;;;;;27.08;39.89;96654.00;4997208;28;19955;-62
2023/05/25 06:59:17;;;;;;;;;;;;;;;27.73;39.36;96655.34;5000083;28;19988;-64
2023/05/25 07:01:47;;;;;;;;;;;;;;;27.75;39.11;96655.94;4999731;28;19960;-63
2023/05/25 07:04:15;;;;;;;;;;;;;;;27.06;40.67;96654.28;4999882;28;20382;-64
2023/05/25 07:06:43;;;;;;;;;;;;;;;27.34;39.80;96653.41;4998284;28;19953;-61
2023/05/25 07:09:11;;;;;;;;;;;;;;;28.25;38.59;96652.28;4993246;28;19964;-63
2023/05/25 07:11:39;;;;;;;;;;;;;;;28.32;38.79;96663.75;5001974;28;19969;-64
2023/05/25 07:14:07;;;;;;;;;;;;;;;28.50;38.11;96662.66;4992983;28;19961;-63
2023/05/25 07:16:35;;;;;;;;;;;;;;;29.08;38.11;96655.69;4999097;28;19965;-63
2023/05/25 07:19:05;;;;;;;;;;;;;;;29.10;37.98;96659.75;4997338;28;19965;-64
2023/05/25 07:21:33;;;;;;;;;;;;;;;28.65;37.81;96659.28;4999524;28;19969;-64
2023/05/25 07:24:01;;;;;;;;;;;;;;;28.88;37.82;96656.28;4997495;28;20425;-64
2023/05/25 07:26:30;;;;;;;;;;;;;;;29.22;38.11;96658.81;5000623;28;19971;-64
2023/05/25 07:28:58;;;;;;;;;;;;;;;28.89;38.72;96652.47;4992666;28;19975;-64
2023/05/25 07:31:26;;;;;;;;;;;;;;;28.33;39.37;96651.84;5002163;28;19983;-63
2023/05/25 07:33:55;;;;;;;;;;;;;;;28.90;38.99;96653.28;4993621;28;19967;-64
2023/05/25 07:36:24;;;;;;;;;;;;;;;29.69;38.02;96660.81;4995150;28;19976;-63
2023/05/25 07:38:52;;;;;;;;;;;;;;;29.13;38.75;96657.63;5000390;28;20381;-66
2023/05/25 07:41:20;;;;;;;;;;;;;;;28.70;39.25;96668.31;4996650;28;19960;-64
2023/05/25 07:43:48;;;;;;;;;;;;;;;29.50;38.25;96660.38;5001144;28;19964;-63
2023/05/25 07:46:19;;;;;;;;;;;;;;;29.12;39.16;96656.81;4979905;28;19984;-63
2023/05/25 07:48:47;;;;;;;;;;;;;;;28.13;39.62;96666.78;4993730;28;19957;-62
2023/05/25 07:51:15;;;;;;;;;;;;;;;28.27;40.41;96661.81;4993406;28;20405;-64
2023/05/25 07:53:45;;;;;;;;;;;;;;;29.04;38.97;96674.41;4993282;28;19956;-63
2023/05/25 07:56:13;;;;;;;;;;;;;;;29.97;37.19;96679.50;5001037;28;19967;-62
2023/05/25 07:58:41;;;;;;;;;;;;;;;28.62;39.76;96687.75;4997772;28;19968;-64
2023/05/25 08:01:09;;;;;;;;;;;;;;;29.54;39.33;96678.63;4999502;28;20472;-63
2023/05/25 08:03:37;;;;;;;;;;;;;;;28.26;40.73;96689.19;4995829;28;19976;-64
2023/05/25 08:06:23;;;;;;;;;;;;;;;28.77;39.68;96692.56;4994896;28;19961;-63
2023/05/25 08:08:52;;;;;;;;;;;;;;;29.83;38.49;96689.16;4993551;28;19960;-63
2023/05/25 08:11:22;;;;;;;;;;;;;;;29.44;38.83;96700.28;4995902;28;20019;-63
2023/05/25 08:13:51;;;;;;;;;;;;;;;29.27;39.17;96702.28;4995491;28;19968;-64
2023/05/25 08:16:19;;;;;;;;;;;;;;;29.19;39.01;96700.06;4990113;28;19956;-64
2023/05/25 08:18:47;;;;;;;;;;;;;;;29.54;38.84;96694.91;4996039;28;20405;-62
2023/05/25 08:21:15;;;;;;;;;;;;;;;28.87;39.56;96703.50;4994000;28;19971;-63
2023/05/25 08:23:43;;;;;;;;;;;;;;;28.14;41.05;96700.94;5000540;28;19960;-62
2023/05/25 08:26:12;;;;;;;;;;;;;;;29.55;38.93;96687.59;4993154;28;19956;-63
2023/05/25 08:29:01;;;;;;;;;;;;;;;30.14;37.78;96694.78;4996737;28;19963;-64
2023/05/25 08:31:29;;;;;;;;;;;;;;;30.17;38.04;96694.28;4996104;28;20484;-64
2023/05/25 08:33:57;;;;;;;;;;;;;;;29.41;38.94;96691.81;5002566;28;19983;-64
2023/05/25 08:36:26;;;;;;;;;;;;;;;31.41;36.57;96695.25;4991330;28;19960;-64
2023/05/25 08:38:54;;;;;;;;;;;;;;;30.36;37.22;96703.66;4998360;28;19964;-64
2023/05/25 08:41:23;;;;;;;;;;;;;;;29.97;37.89;96708.56;4996748;28;20381;-64
2023/05/25 08:43:51;;;;;;;;;;;;;;;29.60;38.45;96705.88;4997190;28;19957;-64
2023/05/25 08:46:24;;;;;;;;;;;;;;;30.01;37.85;96709.69;4997307;28;19969;-64
2023/05/25 08:48:52;;;;;;;;;;;;;;;29.44;39.27;96704.88;4992990;28;20007;-63
2023/05/25 08:51:20;;;;;;;;;;;;;;;29.94;38.11;96704.50;4995086;28;20356;-63
2023/05/25 08:53:48;;;;;;;;;;;;;;;28.56;40.41;96711.31;4994035;28;19960;-63
2023/05/25 08:56:17;;;;;;;;;;;;;;;29.37;39.35;96710.53;4995552;28;19983;-64
2023/05/25 08:58:53;;;;;;;;;;;;;;;30.96;37.01;96713.16;4997749;28;20352;-63
2023/05/25 09:01:21;;;;;;;;;;;;;;;31.10;37.08;96720.81;4980536;28;19972;-64
2023/05/25 09:03:49;;;;;;;;;;;;;;;30.10;38.23;96721.69;4977883;28;20456;-64
2023/05/25 09:06:17;;;;;;;;;;;;;;;30.02;38.01;96719.50;4998635;28;19984;-64
2023/05/25 09:08:46;;;;;;;;;;;;;;;29.01;39.94;96731.09;4995942;28;19964;-64
2023/05/25 09:11:14;;;;;;;;;;;;;;;28.85;39.56;96735.53;5000740;28;19972;-63
2023/05/25 09:13:57;;;;;;;;;;;;;;;29.26;39.50;96722.41;5005544;28;19961;-63
2023/05/25 09:16:26;;;;;;;;;;;;;;;30.15;38.09;96712.78;4996348;28;19922;-63
2023/05/25 09:18:54;;;;;;;;;;;;;;;31.02;36.80;96722.16;4997845;28;19971;-63
2023/05/25 09:21:22;;;;;;;;;;;;;;;32.01;35.31;96719.25;4996810;28;19973;-62
2023/05/25 09:23:50;;;;;;;;;;;;;;;30.19;37.56;96724.78;5008869;28;19960;-62
2023/05/25 09:26:18;;;;;;;;;;;;;;;29.92;38.27;96728.41;5001223;28;19964;-63
2023/05/25 09:28:46;;;;;;;;;;;;;;;30.45;37.37;96733.88;5006791;28;20044;-63
2023/05/25 09:31:16;;;;;;;;;;;;;;;31.79;36.15;96717.59;5000702;28;19969;-60
2023/05/25 09:33:44;;;;;;;;;;;;;;;31.85;35.43;96727.41;5004513;28;19980;-62
2023/05/25 09:36:14;;;;;;;;;;;;;;;30.57;37.04;96737.22;4996946;28;19971;-62
2023/05/25 09:38:42;;;;;;;;;;;;;;;30.68;37.95;96738.91;4999617;28;19969;-61
2023/05/25 09:41:10;;;;;;;;;;;;;;;30.93;37.16;96740.91;4999964;28;19965;-63
2023/05/25 09:43:38;;;;;;;;;;;;;;;30.71;37.41;96743.00;4999361;28;20214;-59
2023/05/25 09:46:17;;;;;;;;;;;;;;;30.21;38.46;96744.38;5002133;28;20401;-62
2023/05/25 09:48:47;;;;;;;;;;;;;;;30.18;38.75;96739.47;5004393;28;19959;-60
2023/05/25 09:51:15;;;;;;;;;;;;;;;31.74;36.28;96736.72;4993784;28;19968;-60
2023/05/25 09:53:43;;;;;;;;;;;;;;;32.89;35.12;96734.28;5005615;28;19979;-59
2023/05/25 09:56:12;;;;;;;;;;;;;;;31.79;36.85;96742.16;4998514;28;19961;-61
2023/05/25 09:58:40;;;;;;;;;;;;;;;30.45;38.29;96742.88;4996613;28;19961;-60
2023/05/25 10:01:08;;;;;;;;;;;;;;;31.10;37.94;96746.13;5001500;28;20354;-62
2023/05/25 10:03:39;;;;;;;;;;;;;;;33.02;35.39;96733.69;5009047;28;19965;-61
2023/05/25 10:06:13;;;;;;;;;;;;;;;32.65;34.67;96736.84;5000611;28;20393;-62
2023/05/25 10:08:41;;;;;;;;;;;;;;;31.08;35.85;96744.78;4999638;28;19968;-63
2023/05/25 10:11:09;;;;;;;;;;;;;;;31.79;36.38;96744.06;4997222;28;20350;-62
2023/05/25 10:13:37;;;;;;;;;;;;;;;32.22;35.33;96731.75;5001751;28;19956;-62
2023/05/25 10:16:06;;;;;;;;;;;;;;;32.30;35.78;96733.09;5000737;28;19967;-62
2023/05/25 10:18:34;;;;;;;;;;;;;;;31.24;36.88;96741.00;5006875;28;20393;-59
2023/05/25 10:21:05;;;;;;;;;;;;;;;30.85;37.90;96736.00;4999663;28;19971;-60
2023/05/25 10:23:35;;;;;;;;;;;;;;;30.91;37.00;96739.56;5000199;28;19971;-61
2023/05/25 10:26:04;;;;;;;;;;;;;;;31.69;36.38;96731.25;4996701;28;19957;-59
2023/05/25 10:28:34;;;;;;;;;;;;;;;32.18;35.73;96736.16;5000961;28;19957;-63
2023/05/25 10:31:02;;;;;;;;;;;;;;;32.76;35.00;96731.06;5004163;28;19983;-58
2023/05/25 10:33:30;;;;;;;;;;;;;;;32.17;35.95;96739.13;4998615;28;19960;-62
2023/05/25 10:36:04;;;;;;;;;;;;;;;32.51;35.20;96731.16;4996765;28;19964;-62
2023/05/25 10:38:39;;;;;;;;;;;;;;;31.72;36.79;96735.34;5000026;28;19961;-59
2023/05/25 10:41:08;;;;;;;;;;;;;;;31.92;36.01;96736.16;4996060;28;19963;-62
2023/05/25 10:43:36;;;;;;;;;;;;;;;31.79;36.17;96736.69;5000411;28;19972;-61
2023/05/25 10:46:04;;;;;;;;;;;;;;;32.68;34.35;96726.16;4999266;28;19967;-61
2023/05/25 10:48:36;;;;;;;;;;;;;;;34.06;32.95;96719.81;4978732;28;20366;-61
2023/05/25 10:51:05;;;;;;;;;;;;;;;33.65;34.94;96724.81;4996328;28;19968;-59
2023/05/25 10:53:36;;;;;;;;;;;;;;;32.73;34.75;96728.91;5003921;28;19968;-59
2023/05/25 10:56:05;;;;;;;;;;;;;;;31.91;35.63;96731.00;4999037;28;19972;-59
2023/05/25 10:58:33;;;;;;;;;;;;;;;32.54;36.16;96736.06;4995178;28;19972;-62
2023/05/25 11:01:02;;;;;;;;;;;;;;;33.36;33.83;96738.41;4998885;28;19964;-60
2023/05/25 11:03:45;;;;;;;;;;;;;;;34.37;32.60;96731.25;4992418;28;19976;-61
2023/05/25 11:06:15;;;;;;;;;;;;;;;34.79;32.23;96726.13;5003128;28;19975;-63
2023/05/25 11:08:50;;;;;;;;;;;;;;;33.44;33.64;96727.66;4997902;28;19969;-58
2023/05/25 11:11:18;;;;;;;;;;;;;;;33.03;34.34;96735.31;4993247;28;19980;-61
2023/05/25 11:13:46;;;;;;;;;;;;;;;32.70;35.46;96732.19;4999087;28;19956;-62
2023/05/25 11:16:16;;;;;;;;;;;;;;;32.49;34.82;96725.19;4997114;28;19957;-59
2023/05/25 11:18:45;;;;;;;;;;;;;;;34.17;33.34;96726.81;4998302;28;19987;-63
2023/05/25 11:21:17;;;;;;;;;;;;;;;33.55;33.74;96725.69;4992750;28;20543;-61
2023/05/25 11:23:55;;;;;;;;;;;;;;;32.81;33.66;96728.31;4996721;28;19964;-60
2023/05/25 11:26:24;;;;;;;;;;;;;;;34.89;32.09;96723.25;4995768;28;19961;-60
2023/05/25 11:28:53;;;;;;;;;;;;;;;34.46;32.47;96725.97;4999301;28;19976;-62
2023/05/25 11:31:23;;;;;;;;;;;;;;;34.88;32.19;96716.97;5001389;28;22941;-62
2023/05/25 11:33:56;;;;;;;;;;;;;;;34.85;32.63;96717.53;4996911;28;19967;-62
2023/05/25 11:36:25;;;;;;;;;;;;;;;36.88;30.00;96714.41;4994450;28;20363;-62
2023/05/25 11:38:54;;;;;;;;;;;;;;;34.42;33.40;96713.97;5001017;28;19948;-60
2023/05/25 11:41:36;;;;;;;;;;;;;;;33.55;33.89;96710.13;4985918;28;19922;-57
2023/05/25 11:44:04;;;;;;;;;;;;;;;35.52;32.54;96698.25;4998936;28;19953;-62
2023/05/25 11:46:33;;;;;;;;;;;;;;;36.23;30.62;96692.63;4991183;28;20361;-61
2023/05/25 11:49:01;;;;;;;;;;;;;;;34.14;32.98;96700.03;4994191;28;19979;-61
2023/05/25 11:51:31;;;;;;;;;;;;;;;34.77;32.52;96711.91;5001679;28;19961;-61
2023/05/25 11:53:59;;;;;;;;;;;;;;;35.19;31.39;96706.41;4999813;28;19976;-61
2023/05/25 11:56:28;;;;;;;;;;;;;;;38.15;28.86;96696.00;5000402;28;19968;-59
2023/05/25 11:59:03;;;;;;;;;;;;;;;34.52;32.52;96700.19;4996932;28;19956;-61
2023/05/25 12:01:31;;;;;;;;;;;;;;;34.97;31.83;96698.75;4975334;28;19968;-59
2023/05/25 12:04:04;;;;;;;;;;;;;;;36.89;30.63;96696.81;4982630;28;19929;-61
2023/05/25 12:06:35;;;;;;;;;;;;;;;36.20;30.96;96679.50;4998189;28;20386;-62
2023/05/25 12:09:05;;;;;;;;;;;;;;;35.19;31.96;96689.13;4977663;28;19949;-58
2023/05/25 12:11:33;;;;;;;;;;;;;;;35.86;30.72;96680.69;4995281;28;20005;-60
2023/05/25 12:14:03;;;;;;;;;;;;;;;34.90;32.05;96694.75;4994228;28;19937;-59
2023/05/25 12:16:31;;;;;;;;;;;;;;;34.52;32.15;96691.97;4999658;28;19995;-60
2023/05/25 12:19:00;;;;;;;;;;;;;;;35.59;31.64;96682.22;5008991;28;19964;-59
2023/05/25 12:21:28;;;;;;;;;;;;;;;34.57;32.70;96686.41;4998186;28;19965;-59
2023/05/25 12:23:58;;;;;;;;;;;;;;;34.21;33.29;96683.25;5002050;28;19957;-61
2023/05/25 12:26:28;;;;;;;;;;;;;;;34.61;33.59;96678.41;4994637;28;19961;-59
2023/05/25 12:28:59;;;;;;;;;;;;;;;34.64;32.64;96686.84;4997187;28;20463;-58
2023/05/25 12:31:28;;;;;;;;;;;;;;;35.56;31.07;96679.28;4998447;28;19960;-61
2023/05/25 12:34:05;;;;;;;;;;;;;;;34.37;33.10;96692.09;4993009;28;19984;-62
2023/05/25 12:36:44;;;;;;;;;;;;;;;33.87;32.44;96686.84;4998964;28;19956;-61
2023/05/25 12:39:14;;;;;;;;;;;;;;;35.18;31.56;96685.59;4995958;28;19925;-62
2023/05/25 12:41:46;;;;;;;;;;;;;;;35.74;31.10;96675.66;4999025;28;19963;-58
2023/05/25 12:44:17;;;;;;;;;;;;;;;33.95;33.25;96679.94;4994593;28;19964;-55
2023/05/25 12:46:45;;;;;;;;;;;;;;;35.51;31.54;96677.41;4995134;28;19969;-63
2023/05/25 12:49:26;;;;;;;;;;;;;;;33.65;33.68;96683.78;4993423;28;19961;-61
2023/05/25 12:51:54;;;;;;;;;;;;;;;33.70;32.92;96686.47;4996402;28;19972;-61
2023/05/25 12:54:37;;;;;;;;;;;;;;;34.34;32.24;96678.97;4995350;28;19993;-57
2023/05/25 12:57:05;;;;;;;;;;;;;;;35.20;31.38;96679.78;4991198;28;20349;-61
2023/05/25 12:59:34;;;;;;;;;;;;;;;36.03;31.39;96677.34;4995673;28;19957;-61
2023/05/25 13:02:02;;;;;;;;;;;;;;;35.71;30.93;96673.50;4991442;28;19977;-61
2023/05/25 13:04:30;;;;;;;;;;;;;;;36.56;30.39;96671.41;4997047;28;19960;-62